Time;durP1;ratioP1;P1;durP2;ratioP2;P2;SDS_P1;SDS_P2;PMS_P1;PMS_P2;Temp;Humidity;BMP_temperature;BMP_pressure;BME280_temperature;BME280_humidity;BME280_pressure;Samples;Min_cycle;Max_cycle;Signal;HPM_P1;HPM_P2
2024/02/14 00:01:20;;;;;;;56.03;16.27;;;;;;;7.70;100.00;99616.13;4988445;28;20096;-60
2024/02/14 00:03:47;;;;;;;42.35;15.43;;;;;;;7.69;100.00;99616.47;4987982;28;20042;-57
2024/02/14 00:06:15;;;;;;;39.53;14.90;;;;;;;7.70;100.00;99618.09;4988279;28;20488;-59
2024/02/14 00:08:42;;;;;;;38.25;14.50;;;;;;;7.69;100.00;99609.00;4988536;28;20051;-61
2024/02/14 00:11:09;;;;;;;38.50;13.75;;;;;;;7.68;100.00;99615.66;4986439;28;20046;-59
2024/02/14 00:13:37;;;;;;;36.70;14.75;;;;;;;7.70;100.00;99609.81;4989022;28;20062;-60
2024/02/14 00:16:06;;;;;;;29.80;13.55;;;;;;;7.70;100.00;99604.31;4975982;28;20042;-58
2024/02/14 00:18:33;;;;;;;40.00;14.80;;;;;;;7.70;100.00;99607.88;4988741;28;20412;-60
2024/02/14 00:21:01;;;;;;;39.72;16.83;;;;;;;7.71;100.00;99601.19;4987468;28;20054;-61
2024/02/14 00:23:29;;;;;;;40.63;15.82;;;;;;;7.71;100.00;99601.19;4982456;28;20047;-59
2024/02/14 00:25:56;;;;;;;32.17;14.13;;;;;;;7.73;100.00;99603.59;4986518;28;20046;-60
2024/02/14 00:28:26;;;;;;;43.97;13.82;;;;;;;7.74;100.00;99602.44;4988737;28;20057;-59
2024/02/14 00:30:54;;;;;;;47.83;16.17;;;;;;;7.74;100.00;99599.69;4986856;28;20085;-58
2024/02/14 00:33:22;;;;;;;38.47;15.50;;;;;;;7.74;100.00;99600.47;4988021;28;20074;-58
2024/02/14 00:35:50;;;;;;;49.03;15.82;;;;;;;7.75;100.00;99593.03;4988076;28;20038;-57
2024/02/14 00:38:17;;;;;;;36.05;15.15;;;;;;;7.73;100.00;99596.13;4988290;28;20042;-59
2024/02/14 00:40:45;;;;;;;38.95;16.40;;;;;;;7.72;100.00;99588.22;4986896;28;20050;-61
2024/02/14 00:43:12;;;;;;;38.30;14.88;;;;;;;7.72;100.00;99593.72;4987165;28;20043;-58
2024/02/14 00:45:39;;;;;;;32.83;14.80;;;;;;;7.72;100.00;99590.97;4988133;28;20043;-59
2024/02/14 00:48:08;;;;;;;36.70;13.60;;;;;;;7.71;100.00;99592.13;4987999;28;20050;-59
2024/02/14 00:50:37;;;;;;;36.65;15.55;;;;;;;7.70;100.00;99593.28;4987751;28;20050;-60
2024/02/14 00:53:05;;;;;;;36.15;15.30;;;;;;;7.69;100.00;99598.00;4987525;28;20054;-59
2024/02/14 00:55:32;;;;;;;30.35;14.55;;;;;;;7.66;100.00;99598.69;4987699;28;20046;-60
2024/02/14 00:57:59;;;;;;;38.47;13.63;;;;;;;7.62;100.00;99597.81;4983175;28;20057;-59
2024/02/14 01:00:27;;;;;;;32.55;14.13;;;;;;;7.60;100.00;99608.38;4988085;28;20054;-59
2024/02/14 01:02:55;;;;;;;39.90;14.48;;;;;;;7.56;100.00;99601.16;4986954;28;20050;-60
2024/02/14 01:05:24;;;;;;;40.25;15.05;;;;;;;7.55;100.00;99608.63;4987608;28;20051;-60
2024/02/14 01:07:53;;;;;;;30.27;14.00;;;;;;;7.54;100.00;99601.53;4987215;28;20046;-60
2024/02/14 01:10:21;;;;;;;36.03;12.70;;;;;;;7.56;100.00;99603.91;4987041;28;20069;-61
2024/02/14 01:12:48;;;;;;;33.85;13.57;;;;;;;7.55;100.00;99597.59;4987575;28;20050;-60
2024/02/14 01:15:16;;;;;;;35.67;13.57;;;;;;;7.54;100.00;99596.03;4987437;28;20069;-61
2024/02/14 01:17:47;;;;;;;33.95;13.88;;;;;;;7.54;100.00;99595.22;4987020;28;20138;-61
2024/02/14 01:20:15;;;;;;;29.90;13.87;;;;;;;7.54;100.00;99587.75;4987653;28;20062;-60
2024/02/14 01:22:43;;;;;;;28.35;14.02;;;;;;;7.55;100.00;99594.03;4986854;28;20414;-60
2024/02/14 01:25:10;;;;;;;34.10;13.50;;;;;;;7.54;100.00;99595.22;4987423;28;20530;-61
2024/02/14 01:27:39;;;;;;;32.65;15.30;;;;;;;7.52;100.00;99598.31;4986966;28;20038;-60
2024/02/14 01:30:07;;;;;;;36.97;13.52;;;;;;;7.53;100.00;99604.63;4979700;28;20054;-60
2024/02/14 01:32:34;;;;;;;28.40;13.32;;;;;;;7.52;100.00;99600.28;4974139;28;20094;-61
2024/02/14 01:35:03;;;;;;;29.15;13.75;;;;;;;7.51;100.00;99601.44;4987190;28;20072;-61
2024/02/14 01:37:31;;;;;;;28.90;13.23;;;;;;;7.55;100.00;99607.81;4986830;28;20057;-60
2024/02/14 01:39:58;;;;;;;29.50;13.90;;;;;;;7.58;100.00;99602.41;4986966;28;20137;-61
2024/02/14 01:42:27;;;;;;;24.92;11.80;;;;;;;7.62;100.00;99597.81;4974363;28;20440;-61
2024/02/14 01:44:55;;;;;;;26.73;11.18;;;;;;;7.66;100.00;99598.69;4985654;28;20560;-61
2024/02/14 01:47:22;;;;;;;23.80;11.90;;;;;;;7.69;100.00;99592.47;4987274;28;20061;-61
2024/02/14 01:49:50;;;;;;;19.67;10.05;;;;;;;7.74;100.00;99583.94;4986657;28;20527;-61
2024/02/14 01:52:17;;;;;;;21.40;9.60;;;;;;;7.77;100.00;99594.28;4987114;28;20428;-61
2024/02/14 01:54:44;;;;;;;19.02;8.77;;;;;;;7.82;100.00;99588.50;4986636;28;20046;-61
2024/02/14 01:57:12;;;;;;;18.65;8.95;;;;;;;7.85;100.00;99585.03;4987297;28;20058;-61
2024/02/14 01:59:39;;;;;;;14.85;7.53;;;;;;;7.89;100.00;99594.19;4987924;28;20057;-61
2024/02/14 02:02:07;;;;;;;11.38;6.30;;;;;;;7.94;100.00;99591.16;4987463;28;20070;-63
2024/02/14 02:04:35;;;;;;;9.25;5.07;;;;;;;8.03;100.00;99590.16;4987996;28;20054;-61
2024/02/14 02:07:03;;;;;;;8.90;4.90;;;;;;;8.09;100.00;99583.25;4986895;28;20503;-61
2024/02/14 02:09:32;;;;;;;9.75;4.50;;;;;;;8.13;100.00;99595.16;4987037;28;20054;-61
2024/02/14 02:12:00;;;;;;;10.63;3.72;;;;;;;8.16;100.00;99595.25;4986379;28;20054;-61
2024/02/14 02:14:29;;;;;;;6.60;3.20;;;;;;;8.19;100.00;99594.53;4987028;28;20488;-61
2024/02/14 02:16:57;;;;;;;4.75;2.95;;;;;;;8.21;100.00;99596.91;4987471;28;20044;-61
2024/02/14 02:19:24;;;;;;;7.45;3.03;;;;;;;8.25;100.00;99597.81;4983342;28;20057;-60
2024/02/14 02:21:52;;;;;;;8.13;2.90;;;;;;;8.29;100.00;99604.22;4979686;28;20527;-60
2024/02/14 02:24:20;;;;;;;7.30;3.42;;;;;;;8.33;100.00;99597.66;4987640;28;20050;-61
2024/02/14 02:26:47;;;;;;;4.35;2.42;;;;;;;8.40;100.00;99594.25;4987219;28;20547;-60
2024/02/14 02:29:16;;;;;;;6.65;2.83;;;;;;;8.43;100.00;99583.31;4986478;28;20516;-61
2024/02/14 02:31:44;;;;;;;7.35;2.53;;;;;;;8.44;100.00;99587.69;4986532;28;20051;-61
2024/02/14 02:34:11;;;;;;;4.32;2.88;;;;;;;8.45;100.00;99593.97;4987239;28;20063;-60
2024/02/14 02:36:41;;;;;;;7.32;2.15;;;;;;;8.43;100.00;99588.03;4982268;28;20710;-60
2024/02/14 02:39:08;;;;;;;5.80;2.20;;;;;;;8.43;100.00;99582.50;4986414;28;20054;-60
2024/02/14 02:41:35;;;;;;;20.42;5.20;;;;;;;8.43;100.00;99583.31;4986539;28;20058;-61
2024/02/14 02:44:06;;;;;;;8.38;2.05;;;;;;;8.45;100.00;99591.22;4988489;28;20050;-60
2024/02/14 02:46:34;;;;;;;7.05;2.95;;;;;;;8.44;100.00;99584.13;4990291;28;20061;-59
2024/02/14 02:49:01;;;;;;;7.75;2.40;;;;;;;8.43;100.00;99582.50;4989949;28;20736;-59
2024/02/14 02:51:29;;;;;;;5.35;2.20;;;;;;;8.42;100.00;99587.22;4989565;28;20054;-58
2024/02/14 02:53:57;;;;;;;8.40;2.28;;;;;;;8.43;100.00;99594.34;4990911;28;20112;-59
2024/02/14 02:56:27;;;;;;;3.63;2.00;;;;;;;8.43;100.00;99588.03;4990182;28;20789;-59
2024/02/14 02:58:55;;;;;;;4.68;1.95;;;;;;;8.43;100.00;99583.31;4989715;28;20046;-59
2024/02/14 03:01:24;;;;;;;4.53;2.08;;;;;;;8.44;100.00;99584.94;5066420;22;20075;-60
2024/02/14 03:03:52;;;;;;;11.52;2.38;;;;;;;8.48;100.00;99585.00;4970636;28;20042;-60
2024/02/14 03:06:20;;;;;;;6.28;2.03;;;;;;;8.51;100.00;99578.75;4970050;28;20055;-60
2024/02/14 03:08:48;;;;;;;6.93;2.13;;;;;;;8.53;100.00;99587.47;4970213;28;20055;-59
2024/02/14 03:11:16;;;;;;;6.47;2.50;;;;;;;8.54;100.00;99581.63;4969131;28;20065;-60
2024/02/14 03:13:44;;;;;;;5.22;2.58;;;;;;;8.59;100.00;99583.28;4969707;28;20066;-58
2024/02/14 03:16:11;;;;;;;4.40;2.22;;;;;;;8.63;100.00;99581.38;4969902;28;20061;-60
2024/02/14 03:18:38;;;;;;;3.72;2.33;;;;;;;8.68;100.00;99580.31;4970176;28;20062;-59
2024/02/14 03:21:06;;;;;;;8.23;2.10;;;;;;;8.71;100.00;99580.38;4956612;28;20420;-60
2024/02/14 03:23:34;;;;;;;9.25;2.20;;;;;;;8.74;100.00;99589.91;4970055;28;20047;-60
2024/02/14 03:26:01;;;;;;;5.68;2.53;;;;;;;8.76;100.00;99582.88;4969646;28;20139;-60
2024/02/14 03:28:29;;;;;;;5.97;2.13;;;;;;;8.79;100.00;99579.38;4970058;28;20061;-60
2024/02/14 03:30:57;;;;;;;3.67;2.10;;;;;;;8.80;100.00;99564.44;4969653;28;20116;-59
2024/02/14 03:33:24;;;;;;;7.13;2.60;;;;;;;8.82;100.00;99578.66;4969770;28;20069;-59
2024/02/14 03:35:52;;;;;;;6.78;2.42;;;;;;;8.84;100.00;99579.09;4956528;28;20047;-59
2024/02/14 03:38:29;;;;;;;5.65;2.03;;;;;;;8.85;100.00;99577.94;4969854;28;20058;-59
2024/02/14 03:40:56;;;;;;;7.53;3.45;;;;;;;8.88;100.00;99577.22;4957777;28;20058;-60
2024/02/14 03:43:24;;;;;;;5.45;1.80;;;;;;;8.88;100.00;99591.03;4969738;28;20513;-60
2024/02/14 03:45:51;;;;;;;5.80;2.50;;;;;;;8.91;100.00;99581.22;4969388;28;20062;-59
2024/02/14 03:48:19;;;;;;;5.63;2.55;;;;;;;8.95;100.00;99580.13;4952529;28;20065;-59
2024/02/14 03:50:46;;;;;;;8.43;2.17;;;;;;;8.98;100.00;99582.16;4969866;28;20061;-59
2024/02/14 03:53:14;;;;;;;10.40;2.10;;;;;;;9.01;100.00;99584.19;4968965;28;20051;-60
2024/02/14 03:55:42;;;;;;;5.57;2.53;;;;;;;9.03;100.00;99584.63;4969131;28;20050;-61
2024/02/14 03:58:09;;;;;;;7.68;2.25;;;;;;;9.04;100.00;99582.69;4969679;28;20061;-60
2024/02/14 04:00:37;;;;;;;6.05;2.20;;;;;;;9.03;100.00;99578.31;4968662;28;20055;-60
2024/02/14 04:03:04;;;;;;;8.75;2.95;;;;;;;8.99;100.00;99583.78;4967680;28;20585;-60
2024/02/14 04:05:32;;;;;;;2.42;1.77;;;;;;;8.99;100.00;99572.72;4969300;28;20050;-60
2024/02/14 04:07:59;;;;;;;5.47;3.03;;;;;;;8.96;100.00;99573.44;4969304;28;20563;-62
2024/02/14 04:10:26;;;;;;;5.38;1.75;;;;;;;8.94;100.00;99573.03;4968573;28;20047;-61
2024/02/14 04:12:54;;;;;;;2.78;1.42;;;;;;;8.92;100.00;99571.78;4968995;28;20055;-60
2024/02/14 04:15:21;;;;;;;4.57;2.22;;;;;;;8.91;100.00;99562.69;4968951;28;20093;-60
2024/02/14 04:17:48;;;;;;;3.85;1.45;;;;;;;8.90;100.00;99555.56;4952005;28;20046;-59
2024/02/14 04:20:16;;;;;;;11.18;1.75;;;;;;;8.91;100.00;99559.94;4951711;28;20053;-60
2024/02/14 04:22:43;;;;;;;6.28;2.03;;;;;;;8.91;100.00;99554.41;4968578;28;20046;-61
2024/02/14 04:25:12;;;;;;;8.65;1.67;;;;;;;8.91;100.00;99548.91;4968846;28;20065;-61
2024/02/14 04:27:39;;;;;;;4.70;1.50;;;;;;;8.93;100.00;99529.19;4968488;28;20050;-60
2024/02/14 04:30:07;;;;;;;3.38;1.70;;;;;;;8.92;100.00;99541.44;4968460;28;20051;-60
2024/02/14 04:32:34;;;;;;;4.80;1.88;;;;;;;8.91;100.00;99542.56;4968557;28;20041;-60
2024/02/14 04:35:03;;;;;;;6.00;1.88;;;;;;;8.90;100.00;99539.00;4956313;28;20059;-60
2024/02/14 04:37:32;;;;;;;3.95;1.50;;;;;;;8.89;100.00;99548.47;4956259;28;20047;-60
2024/02/14 04:40:00;;;;;;;9.90;1.85;;;;;;;8.85;100.00;99550.34;4968409;28;20584;-62
2024/02/14 04:42:27;;;;;;;7.97;2.20;;;;;;;8.84;100.00;99550.72;4968497;28;20062;-61
2024/02/14 04:44:55;;;;;;;5.00;1.40;;;;;;;8.85;100.00;99550.34;4968954;28;20061;-61
2024/02/14 04:47:22;;;;;;;2.95;1.45;;;;;;;8.85;100.00;99555.06;4968426;28;20408;-60
2024/02/14 04:49:51;;;;;;;6.00;1.55;;;;;;;8.86;100.00;99554.72;4968280;28;20062;-60
2024/02/14 04:52:18;;;;;;;4.82;1.77;;;;;;;8.89;100.00;99562.28;4968607;28;20058;-60
2024/02/14 04:54:46;;;;;;;8.00;1.55;;;;;;;8.93;100.00;99567.84;4967998;28;20042;-60
2024/02/14 04:57:14;;;;;;;9.95;2.05;;;;;;;8.94;100.00;99559.22;4968164;28;20543;-60
2024/02/14 04:59:41;;;;;;;6.60;1.50;;;;;;;8.97;100.00;99565.97;4965218;28;20047;-60
2024/02/14 05:02:09;;;;;;;5.18;1.80;;;;;;;8.98;100.00;99562.84;4956917;28;20047;-60
2024/02/14 05:04:37;;;;;;;8.98;1.67;;;;;;;9.00;100.00;99549.47;4968097;28;20051;-60
2024/02/14 05:07:05;;;;;;;5.30;1.60;;;;;;;9.03;100.00;99559.78;4967225;28;20073;-59
2024/02/14 05:09:33;;;;;;;3.83;2.10;;;;;;;9.04;100.00;99563.34;4967671;28;20043;-60
2024/02/14 05:12:00;;;;;;;3.45;1.55;;;;;;;9.04;100.00;99566.09;4968115;28;20055;-61
2024/02/14 05:14:31;;;;;;;7.35;1.88;;;;;;;9.06;100.00;99561.81;4967840;28;20042;-60
2024/02/14 05:17:01;;;;;;;7.03;2.30;;;;;;;9.08;100.00;99565.00;4967664;28;20892;-61
2024/02/14 05:19:29;;;;;;;10.38;3.40;;;;;;;9.09;100.00;99569.38;4968062;28;20043;-61
2024/02/14 05:21:57;;;;;;;10.25;1.95;;;;;;;9.11;100.00;99560.72;4960423;28;20047;-60
2024/02/14 05:24:29;;;;;;;6.70;2.20;;;;;;;9.12;100.00;99571.41;4968126;28;20563;-60
2024/02/14 05:26:57;;;;;;;5.72;2.15;;;;;;;9.13;100.00;99570.25;4967999;28;20773;-60
2024/02/14 05:29:24;;;;;;;13.75;2.65;;;;;;;9.17;100.00;99567.56;4967582;28;20515;-60
2024/02/14 05:31:55;;;;;;;6.82;2.20;;;;;;;9.19;100.00;99570.75;4967172;28;20062;-61
2024/02/14 05:34:22;;;;;;;9.38;1.95;;;;;;;9.21;100.00;99562.91;4967943;28;20062;-60
2024/02/14 05:36:51;;;;;;;12.65;2.10;;;;;;;9.24;100.00;99569.69;4967301;28;20135;-60
2024/02/14 05:39:18;;;;;;;13.68;2.65;;;;;;;9.25;100.00;99568.50;4967310;28;20393;-59
2024/02/14 05:41:49;;;;;;;10.60;2.72;;;;;;;9.27;100.00;99566.97;4968025;28;20416;-59
2024/02/14 05:44:16;;;;;;;8.73;2.45;;;;;;;9.29;100.00;99566.63;4967476;28;20049;-60
2024/02/14 05:46:45;;;;;;;13.80;2.95;;;;;;;9.31;100.00;99567.03;4967364;28;20051;-60
2024/02/14 05:49:12;;;;;;;13.35;2.65;;;;;;;9.34;100.00;99560.78;4967477;28;20053;-59
2024/02/14 05:51:40;;;;;;;13.55;3.15;;;;;;;9.34;100.00;99566.31;4951484;28;20050;-61
2024/02/14 05:54:08;;;;;;;11.32;2.88;;;;;;;9.34;100.00;99569.06;4957879;28;20724;-60
2024/02/14 05:56:36;;;;;;;9.55;2.25;;;;;;;9.33;100.00;99565.50;4964632;28;20058;-60
2024/02/14 05:59:04;;;;;;;16.20;3.67;;;;;;;9.32;100.00;99563.13;4950517;28;20456;-60
2024/02/14 06:01:31;;;;;;;11.52;3.20;;;;;;;9.31;100.00;99564.28;4967814;28;20397;-60
2024/02/14 06:03:59;;;;;;;9.07;2.63;;;;;;;9.28;100.00;99568.56;4966886;28;20062;-61
2024/02/14 06:06:26;;;;;;;18.02;3.63;;;;;;;9.26;100.00;99567.34;4967547;28;20098;-60
2024/02/14 06:08:54;;;;;;;12.32;2.63;;;;;;;9.25;100.00;99574.00;4967456;28;20061;-60
2024/02/14 06:11:22;;;;;;;12.25;2.95;;;;;;;9.24;100.00;99575.19;4950183;28;20051;-61
2024/02/14 06:13:49;;;;;;;16.73;3.17;;;;;;;9.24;100.00;99573.22;4967471;28;20138;-61
2024/02/14 06:16:17;;;;;;;14.18;3.50;;;;;;;9.25;100.00;99576.78;4966902;28;20051;-61
2024/02/14 06:18:45;;;;;;;12.50;3.05;;;;;;;9.25;100.00;99580.34;4970527;28;20480;-61
2024/02/14 06:21:13;;;;;;;12.77;4.18;;;;;;;9.25;100.00;99579.53;4971025;28;20528;-60
2024/02/14 06:23:40;;;;;;;15.50;3.22;;;;;;;9.23;100.00;99570.81;4971323;28;20055;-61
2024/02/14 06:26:07;;;;;;;15.38;5.13;;;;;;;9.23;100.00;99576.34;4971205;28;20054;-60
2024/02/14 06:28:35;;;;;;;13.75;3.13;;;;;;;9.24;100.00;99584.25;4970743;28;20061;-60
2024/02/14 06:31:02;;;;;;;13.95;2.80;;;;;;;9.24;100.00;99572.44;4970818;28;20058;-61
2024/02/14 06:33:29;;;;;;;16.98;4.05;;;;;;;9.24;100.00;99577.97;4970958;28;20054;-60
2024/02/14 06:35:57;;;;;;;15.43;2.90;;;;;;;9.22;100.00;99571.97;4971399;28;20816;-61
2024/02/14 06:38:25;;;;;;;13.20;3.58;;;;;;;9.21;100.00;99573.97;4970267;28;20077;-61
2024/02/14 06:40:52;;;;;;;18.95;3.67;;;;;;;9.19;100.00;99570.75;4970756;28;20043;-61
2024/02/14 06:43:19;;;;;;;18.45;3.60;;;;;;;9.21;100.00;99575.91;4970426;28;20050;-60
2024/02/14 06:45:47;;;;;;;17.48;3.40;;;;;;;9.21;100.00;99573.16;4958880;28;20043;-61
2024/02/14 06:48:14;;;;;;;11.68;3.20;;;;;;;9.18;100.00;99575.50;4952496;28;20512;-60
2024/02/14 06:50:42;;;;;;;13.30;3.50;;;;;;;9.16;100.00;99572.28;4970923;28;20066;-61
2024/02/14 06:53:09;;;;;;;22.55;4.30;;;;;;;9.14;100.00;99569.09;4970617;28;20058;-61
2024/02/14 06:55:36;;;;;;;17.27;2.83;;;;;;;9.14;100.00;99585.66;4970777;28;20051;-60
2024/02/14 06:58:04;;;;;;;18.55;4.13;;;;;;;9.17;100.00;99590.44;4970328;28;20042;-61
2024/02/14 07:00:33;;;;;;;16.50;3.13;;;;;;;9.19;100.00;99587.31;4970167;28;20508;-60
2024/02/14 07:03:00;;;;;;;12.65;3.08;;;;;;;9.21;100.00;99585.00;4969845;28;20066;-61
2024/02/14 07:05:29;;;;;;;18.83;5.53;;;;;;;9.24;100.00;99584.25;4970769;28;20421;-60
2024/02/14 07:07:56;;;;;;;13.10;3.83;;;;;;;9.24;100.00;99589.78;4966155;28;20560;-60
2024/02/14 07:10:24;;;;;;;17.27;3.17;;;;;;;9.24;100.00;99572.44;4970017;28;20420;-60
2024/02/14 07:12:51;;;;;;;16.45;3.97;;;;;;;9.24;100.00;99575.19;4967129;28;20050;-60
2024/02/14 07:15:19;;;;;;;14.13;3.47;;;;;;;9.23;100.00;99581.88;4961171;28;20066;-61
2024/02/14 07:17:47;;;;;;;16.92;4.65;;;;;;;9.23;100.00;99584.63;4970289;28;20066;-60
2024/02/14 07:20:17;;;;;;;9.93;3.60;;;;;;;9.23;100.00;99587.41;4958555;28;20063;-60
2024/02/14 07:22:47;;;;;;;13.07;3.00;;;;;;;9.24;100.00;99589.00;4951437;28;20053;-61
2024/02/14 07:25:15;;;;;;;23.73;3.53;;;;;;;9.26;100.00;99581.16;4968773;28;20043;-60
2024/02/14 07:27:42;;;;;;;17.92;4.07;;;;;;;9.26;100.00;99575.63;4969891;28;20062;-61
2024/02/14 07:30:10;;;;;;;20.08;4.68;;;;;;;9.29;100.00;99572.94;4952180;28;20051;-61
2024/02/14 07:32:38;;;;;;;20.13;3.47;;;;;;;9.30;100.00;99579.25;4969519;28;20043;-60
2024/02/14 07:35:06;;;;;;;24.63;3.80;;;;;;;9.30;100.00;99579.25;4969339;28;20061;-61
2024/02/14 07:37:34;;;;;;;18.63;4.05;;;;;;;9.29;100.00;99580.41;4969900;28;20401;-60
2024/02/14 07:40:01;;;;;;;20.70;4.40;;;;;;;9.29;100.00;99585.94;4969375;28;20050;-61
2024/02/14 07:42:29;;;;;;;17.70;4.90;;;;;;;9.28;100.00;99585.16;4969983;28;20043;-60
2024/02/14 07:44:57;;;;;;;17.10;4.72;;;;;;;9.27;100.00;99589.06;4969436;28;20050;-60
2024/02/14 07:47:24;;;;;;;12.63;3.83;;;;;;;9.27;100.00;99600.09;4969261;28;20053;-59
2024/02/14 07:49:54;;;;;;;29.00;4.13;;;;;;;9.28;100.00;99600.91;4970067;28;20051;-60
2024/02/14 07:52:21;;;;;;;21.35;4.32;;;;;;;9.29;100.00;99599.75;4969413;28;20440;-59
2024/02/14 07:54:53;;;;;;;19.40;3.75;;;;;;;9.32;100.00;99601.78;4969176;28;20408;-60
2024/02/14 07:57:22;;;;;;;;;;;;;;;9.32;100.00;99602.56;4970091;28;20058;-60
2024/02/14 07:59:50;;;;;;;19.90;3.67;;;;;;;9.35;100.00;99598.28;4969513;28;19929;-58
2024/02/14 08:02:18;;;;;;;20.10;4.75;;;;;;;9.37;100.00;99598.72;4969315;28;20889;-60
2024/02/14 08:04:46;;;;;;;24.83;4.93;;;;;;;9.37;100.00;99607.03;4968972;28;20047;-60
2024/02/14 08:07:14;;;;;;;17.90;4.13;;;;;;;9.37;100.00;99604.25;4967752;28;20062;-61
2024/02/14 08:09:42;;;;;;;10.82;4.07;;;;;;;9.37;100.00;99599.50;4968699;28;20413;-61
2024/02/14 08:12:10;;;;;;;21.15;4.05;;;;;;;9.40;100.00;99606.28;4969361;28;20043;-61
2024/02/14 08:14:38;;;;;;;17.48;4.90;;;;;;;9.40;100.00;99614.59;4967452;28;20034;-58
2024/02/14 08:17:05;;;;;;;18.17;4.97;;;;;;;9.39;100.00;99613.78;4967044;28;20050;-58
2024/02/14 08:19:33;;;;;;;21.75;4.75;;;;;;;9.42;100.00;99620.53;4956787;28;20055;-57
2024/02/14 08:22:01;;;;;;;28.55;5.68;;;;;;;9.43;100.00;99624.88;4960310;28;20065;-60
2024/02/14 08:24:28;;;;;;;25.83;4.68;;;;;;;9.45;100.00;99628.09;4969445;28;20401;-57
2024/02/14 08:26:56;;;;;;;26.13;3.95;;;;;;;9.47;100.00;99636.81;4969843;28;20046;-59
2024/02/14 08:29:23;;;;;;;23.83;5.63;;;;;;;9.50;100.00;99636.09;4969780;28;20081;-59
2024/02/14 08:31:50;;;;;;;15.98;3.63;;;;;;;9.53;100.00;99635.38;4968873;28;20054;-60
2024/02/14 08:34:18;;;;;;;21.73;3.47;;;;;;;9.56;100.00;99629.06;4969611;28;20433;-58
2024/02/14 08:36:45;;;;;;;9.15;2.58;;;;;;;9.61;100.00;99618.53;4969018;28;20066;-62
2024/02/14 08:39:13;;;;;;;16.33;4.40;;;;;;;9.66;100.00;99634.03;4952117;28;20061;-59
2024/02/14 08:41:41;;;;;;;10.20;3.13;;;;;;;9.71;100.00;99630.97;4969267;28;20058;-60
2024/02/14 08:44:08;;;;;;;10.10;2.75;;;;;;;9.76;100.00;99638.97;4969363;28;20054;-60
2024/02/14 08:46:36;;;;;;;4.75;2.28;;;;;;;9.83;100.00;99639.09;4969622;28;20047;-60
2024/02/14 08:49:08;;;;;;;18.58;4.22;;;;;;;9.89;100.00;99625.75;4969217;28;20055;-61
2024/02/14 08:51:38;;;;;;;10.43;2.75;;;;;;;9.93;100.00;99618.34;4968760;28;20050;-61
2024/02/14 08:54:06;;;;;;;9.00;2.22;;;;;;;9.95;100.00;99619.56;4969632;28;20468;-59
2024/02/14 08:56:34;;;;;;;7.22;2.17;;;;;;;9.97;100.00;99622.75;4969075;28;20597;-60
2024/02/14 08:59:02;;;;;;;7.03;2.45;;;;;;;10.02;100.00;99636.28;4959621;28;20043;-61
2024/02/14 09:01:30;;;;;;;9.52;2.45;;;;;;;10.05;100.00;99646.59;4966508;28;20077;-61
2024/02/14 09:03:58;;;;;;;4.63;1.70;;;;;;;10.09;100.00;99647.44;4968554;28;20054;-61
2024/02/14 09:06:26;;;;;;;8.02;1.83;;;;;;;10.12;100.00;99652.28;4968805;28;20050;-63
2024/02/14 09:08:54;;;;;;;3.20;1.50;;;;;;;10.19;100.00;99657.16;4969118;28;20046;-61
2024/02/14 09:11:22;;;;;;;3.53;1.38;;;;;;;10.24;100.00;99649.34;4968689;28;20051;-60
2024/02/14 09:13:54;;;;;;;4.00;1.10;;;;;;;10.29;100.00;99659.28;4968858;28;20042;-61
2024/02/14 09:16:23;;;;;;;4.03;1.20;;;;;;;10.34;100.00;99664.50;4968553;28;20053;-61
2024/02/14 09:18:50;;;;;;;3.35;1.00;;;;;;;10.38;100.00;99666.16;4968914;28;20069;-61
2024/02/14 09:21:19;;;;;;;4.90;1.30;;;;;;;10.42;100.00;99665.44;4968174;28;20047;-61
2024/02/14 09:23:47;;;;;;;6.70;2.08;;;;;;;10.44;100.00;99665.84;4967986;28;20043;-62
2024/02/14 09:26:18;;;;;;;2.92;1.23;;;;;;;10.47;100.00;99660.38;4968780;28;20424;-61
2024/02/14 09:28:45;;;;;;;3.65;1.70;;;;;;;10.50;100.00;99672.69;4969046;28;20061;-61
2024/02/14 09:31:19;;;;;;;6.72;2.17;;;;;;;10.54;100.00;99671.56;4969148;28;20058;-61
2024/02/14 09:33:48;;;;;;;10.52;1.50;;;;;;;10.59;100.00;99664.94;4968403;28;20513;-61
2024/02/14 09:36:15;;;;;;;5.53;1.17;;;;;;;10.61;100.00;99668.13;4968541;28;20424;-61
2024/02/14 09:38:44;;;;;;;8.50;1.80;;;;;;;10.60;100.00;99666.50;4968345;28;20047;-61
2024/02/14 09:41:18;;;;;;;8.63;1.55;;;;;;;10.57;100.00;99668.06;4968926;28;20047;-61
2024/02/14 09:43:46;;;;;;;7.85;2.08;;;;;;;10.57;100.00;99667.25;4963662;28;20058;-61
2024/02/14 09:46:14;;;;;;;5.85;1.80;;;;;;;10.58;100.00;99666.91;4959881;28;20051;-59
2024/02/14 09:48:44;;;;;;;8.90;2.17;;;;;;;10.61;100.00;99668.13;4968676;28;20050;-61
2024/02/14 09:51:13;;;;;;;9.73;2.33;;;;;;;10.63;100.00;99671.31;4968642;28;20062;-61
2024/02/14 09:53:41;;;;;;;9.43;2.15;;;;;;;10.65;100.00;99668.97;4973856;28;20382;-61
2024/02/14 09:56:11;;;;;;;6.45;1.75;;;;;;;10.68;100.00;99679.28;4973086;28;20058;-61
2024/02/14 09:58:40;;;;;;;4.97;1.98;;;;;;;10.70;100.00;99677.75;4974859;28;20047;-61
2024/02/14 10:01:08;;;;;;;6.93;2.00;;;;;;;10.72;100.00;99682.94;4974203;28;20085;-60
2024/02/14 10:03:36;;;;;;;10.90;2.35;;;;;;;10.73;100.00;99676.22;4975444;28;20070;-61
2024/02/14 10:06:04;;;;;;;5.15;1.95;;;;;;;10.71;100.00;99684.91;4974373;28;20058;-61
2024/02/14 10:08:32;;;;;;;13.00;3.05;;;;;;;10.70;100.00;99688.00;4973031;28;20061;-61
2024/02/14 10:11:00;;;;;;;12.05;2.10;;;;;;;10.70;100.00;99691.59;4957009;28;20054;-61
2024/02/14 10:13:28;;;;;;;9.10;1.75;;;;;;;10.72;100.00;99699.53;4974926;28;20054;-61
2024/02/14 10:15:56;;;;;;;5.97;2.22;;;;;;;10.72;100.00;99699.53;4974616;28;20615;-61
2024/02/14 10:18:24;;;;;;;6.18;1.40;;;;;;;10.74;100.00;99686.13;4972473;28;20057;-61
2024/02/14 10:20:56;;;;;;;5.82;2.25;;;;;;;10.77;100.00;99672.34;4974605;28;20077;-59
2024/02/14 10:23:23;;;;;;;5.90;1.75;;;;;;;10.81;100.00;99686.22;4972942;28;20043;-61
2024/02/14 10:25:55;;;;;;;11.20;3.00;;;;;;;10.84;100.00;99696.56;4974457;28;20046;-61
2024/02/14 10:28:23;;;;;;;;;;;;;;;10.84;100.00;99693.78;4975377;28;20404;-60
2024/02/14 10:31:05;;;;;;;39.53;5.40;;;;;;;10.87;100.00;99695.81;4978494;28;20025;-61
2024/02/14 10:33:32;;;;;;;109.20;16.10;;;;;;;10.91;100.00;99693.88;4985810;28;20050;-61
2024/02/14 10:36:02;;;;;;;6.05;1.55;;;;;;;10.96;100.00;99693.59;4974280;28;20051;-61
2024/02/14 10:38:32;;;;;;;5.15;1.20;;;;;;;11.02;100.00;99700.38;4970189;28;20055;-61
2024/02/14 10:41:02;;;;;;;7.30;1.70;;;;;;;11.07;100.00;99697.28;4974136;28;20051;-61
2024/02/14 10:43:29;;;;;;;7.38;1.80;;;;;;;11.14;100.00;99714.03;4974200;28;20065;-59
2024/02/14 10:46:00;;;;;;;5.47;1.50;;;;;;;11.20;100.00;99711.75;4974472;28;20054;-61
2024/02/14 10:48:33;;;;;;;7.30;1.00;;;;;;;11.24;100.00;99716.16;4975724;28;20055;-60
2024/02/14 10:51:06;;;;;;;2.90;1.50;;;;;;;11.31;100.00;99719.00;4983146;28;20051;-61
2024/02/14 10:53:34;;;;;;;1.48;0.60;;;;;;;11.36;100.00;99713.13;4974396;28;20043;-61
2024/02/14 10:56:03;;;;;;;1.33;0.77;;;;;;;11.41;100.00;99712.81;4974654;28;20054;-60
2024/02/14 10:58:32;;;;;;;4.97;1.67;;;;;;;11.50;100.00;99715.31;4974079;28;20059;-59
2024/02/14 11:01:00;;;;;;;2.78;0.80;;;;;;;11.59;100.00;99718.59;4974056;28;20065;-62
2024/02/14 11:03:30;;;;;;;5.13;0.90;;;;;;;11.67;100.00;99719.50;4972356;28;20058;-61
2024/02/14 11:06:03;;;;;;;4.18;0.90;;;;;;;11.71;100.00;99712.03;4960968;28;20903;-61
2024/02/14 11:08:33;;;;;;;2.88;0.77;;;;;;;11.75;100.00;99729.53;4971313;28;20061;-61
2024/02/14 11:11:01;;;;;;;6.65;1.13;;;;;;;11.78;100.00;99737.09;4969193;28;20390;-61
2024/02/14 11:13:32;;;;;;;3.63;0.93;;;;;;;11.85;100.00;99742.72;4970993;28;20050;-61
2024/02/14 11:16:01;;;;;;;3.35;1.00;;;;;;;11.89;100.00;99743.53;4970568;28;20046;-61
2024/02/14 11:18:29;;;;;;;1.67;0.50;;;;;;;11.91;100.00;99735.66;4953695;28;20062;-60
2024/02/14 11:20:57;;;;;;;2.42;0.82;;;;;;;11.92;100.00;99737.25;4970451;28;20486;-62
2024/02/14 11:23:28;;;;;;;2.55;0.55;;;;;;;11.91;100.00;99741.22;4970979;28;20055;-61
2024/02/14 11:26:03;;;;;;;1.38;0.50;;;;;;;11.93;100.00;99744.41;4970362;28;20052;-61
2024/02/14 11:28:31;;;;;;;6.15;0.80;;;;;;;11.97;100.00;99750.78;4971304;28;20047;-61
2024/02/14 11:31:03;;;;;;;3.42;0.85;;;;;;;12.01;100.00;99752.44;4970441;28;20067;-61